St Paul Island Airport
PASN : rendu visible

Aérodrome :











RETROUVEZ-NOUS SUR...

 
LOGIN :

S'inscrire | Disclaimer

   EN    FR    IT 

 









Légende :    VFR   VFR Marginal   IFR   IFR Intensif   IFR Très Intensif
Visi : 
Plafond : 
>= 8 km
>= 3000ft
5 à 8 km
1000 à 3000 ft
1500m à 5 km
500 à 1000 ft
800 à 1500m
200 à 500 ft
< 800m
< 200 ft
Symboles :   Orages  Brouillard  Fortes neiges  Fortes précipitations  Vent > 20 kt






- Altitude de l'aérodrome : 63 ft
- Code IATA : SNP


PASN - St Paul Island

DERNIER METAR :
  • 271153Z AUTO 06005KT 8SM SCT010 OVC055 01/M01 A2961 RMK SLP027 T00061006 10011 21017 51006 FZRANO TSNO $ VIA AUTODIAL

METARs EXPIRÉS :
  • 271053Z AUTO 05005KT 8SM OVC055 01/M01 A2960 RMK SLP024 T00061011 FZRANO TSNO $ VIA AUTODIAL
  • 270953Z AUTO 07006KT 9SM FEW032 OVC050 01/M01 A2959 RMK SLP020 T00061011 FZRANO TSNO $ VIA AUTODIAL
  • 270853Z AUTO 08006KT 7SM OVC050 01/M01 A2957 RMK SLP015 T00111006 400111039 53008 FZRANO TSNO $ VIA AUTODIAL

TAF PASN
Valide du 27 à 12h jusqu'au 28 à 12h UTC


271144Z 2712/2812 06008KT P6SM FEW015 OVC050
TEMPO 2712/2715 2SM -SHSN BR
FM271500 08008KT P6SM FEW015 BKN025
FM280000 07007KT 4SM BR OVC015



MET'MAP, la Météo Aéronautique d'un coup d'oeil ! - Copyright ORBIFLY Décembre 2007 - Disclaimer

ORBIFLY MET'MAP TEAM :

Programmation & Développement : Alexandra Zaïnal
Sur une idée originale de : Baudouin d'Aumeries
Assistance à la programmation : Marc-Olivier Méhu
Soutien technique & logistique : Manuel Goepfert

Contact : metmap@orbifly.com




SOURCES & CREDITS :

   NOAA       Earth
Advisory